Map

Track Data

SID SEASON NUMBER BASIN SUBBASIN NAME ISO_TIME NATURE LAT LON WMO_WIND WMO_PRES WMO_AGENCY TRACK_TYPE DIST2LAND LANDFALL IFLAG USA_AGENCY USA_ATCF_ID USA_LAT USA_LON USA_RECORD USA_STATUS USA_WIND USA_PRES USA_SSHS USA_R34_NE USA_R34_SE USA_R34_SW USA_R34_NW USA_R50_NE USA_R50_SE USA_R50_SW USA_R50_NW USA_R64_NE USA_R64_SE USA_R64_SW USA_R64_NW USA_POCI USA_ROCI USA_RMW USA_EYE TOKYO_LAT TOKYO_LON TOKYO_GRADE TOKYO_WIND TOKYO_PRES TOKYO_R50_DIR TOKYO_R50_LONG TOKYO_R50_SHORT TOKYO_R30_DIR TOKYO_R30_LONG TOKYO_R30_SHORT TOKYO_LAND CMA_LAT CMA_LON CMA_CAT CMA_WIND CMA_PRES HKO_LAT HKO_LON HKO_CAT HKO_WIND HKO_PRES NEWDELHI_LAT NEWDELHI_LON NEWDELHI_GRADE NEWDELHI_WIND NEWDELHI_PRES NEWDELHI_CI NEWDELHI_DP NEWDELHI_POCI REUNION_LAT REUNION_LON REUNION_TYPE REUNION_WIND REUNION_PRES REUNION_TNUM REUNION_CI REUNION_RMW REUNION_R34_NE REUNION_R34_SE REUNION_R34_SW REUNION_R34_NW REUNION_R50_NE REUNION_R50_SE REUNION_R50_SW REUNION_R50_NW REUNION_R64_NE REUNION_R64_SE REUNION_R64_SW REUNION_R64_NW BOM_LAT BOM_LON BOM_TYPE BOM_WIND BOM_PRES BOM_TNUM BOM_CI BOM_RMW BOM_R34_NE BOM_R34_SE BOM_R34_SW BOM_R34_NW BOM_R50_NE BOM_R50_SE BOM_R50_SW BOM_R50_NW BOM_R64_NE BOM_R64_SE BOM_R64_SW BOM_R64_NW BOM_ROCI BOM_POCI BOM_EYE BOM_POS_METHOD BOM_PRES_METHOD NADI_LAT NADI_LON NADI_CAT NADI_WIND NADI_PRES WELLINGTON_LAT WELLINGTON_LON WELLINGTON_WIND WELLINGTON_PRES DS824_LAT DS824_LON DS824_STAGE DS824_WIND DS824_PRES TD9636_LAT TD9636_LON TD9636_STAGE TD9636_WIND TD9636_PRES TD9635_LAT TD9635_LON TD9635_WIND TD9635_PRES TD9635_ROCI NEUMANN_LAT NEUMANN_LON NEUMANN_CLASS NEUMANN_WIND NEUMANN_PRES MLC_LAT MLC_LON MLC_CLASS MLC_WIND MLC_PRES USA_GUST BOM_GUST BOM_GUST_PER REUNION_GUST REUNION_GUST_PER USA_SEAHGT USA_SEARAD_NE USA_SEARAD_SE USA_SEARAD_SW USA_SEARAD_NW STORM_SPEED STORM_DIR
1993164N04160 1993 33 WP MM KORYN 1993-06-13 06:00:00 NR 4.00000 160.000 main 1193 1178 O_____________ jtwc_wp WP061993 4.00000 160.000 15 -1 4 267
1993164N04160 1993 33 WP MM KORYN 1993-06-13 09:00:00 NR 3.99001 159.798 main 1178 1164 P_____________ WP061993 3.99001 159.798 15 -1 4 270
1993164N04160 1993 33 WP MM KORYN 1993-06-13 12:00:00 NR 4.00000 159.600 main 1164 1150 O_____________ jtwc_wp WP061993 4.00000 159.600 15 -1 4 278
1993164N04160 1993 33 WP MM KORYN 1993-06-13 15:00:00 NR 4.04249 159.408 main 1150 1144 P_____________ WP061993 4.04249 159.408 15 -1 4 284
1993164N04160 1993 33 WP MM KORYN 1993-06-13 18:00:00 NR 4.10000 159.200 main 1144 1131 O_____________ jtwc_wp WP061993 4.10000 159.200 15 -1 5 283
1993164N04160 1993 33 WP MM KORYN 1993-06-13 21:00:00 NR 4.15001 158.950 main 1139 1120 P_____________ WP061993 4.15001 158.950 15 -1 5 281
1993164N04160 1993 33 WP MM KORYN 1993-06-14 00:00:00 NR 4.20000 158.700 main 1120 1107 O_____________ jtwc_wp WP061993 4.20000 158.700 15 -1 5 283
1993164N04160 1993 33 WP MM KORYN 1993-06-14 03:00:00 NR 4.25749 158.493 main 1116 1102 P_____________ WP061993 4.25749 158.493 15 -1 4 284
1993164N04160 1993 33 WP MM KORYN 1993-06-14 06:00:00 NR 4.30000 158.300 main 1102 1088 O_____________ jtwc_wp WP061993 4.30000 158.300 15 -1 4 276
1993164N04160 1993 33 WP MM KORYN 1993-06-14 09:00:00 NR 4.30000 158.092 main 1088 1075 P_____________ WP061993 4.30000 158.092 15 -1 4 270
1993164N04160 1993 33 WP MM KORYN 1993-06-14 12:00:00 NR 4.30000 157.900 main 1075 1068 O_____________ jtwc_wp WP061993 4.30000 157.900 15 -1 4 277
1993164N04160 1993 33 WP MM KORYN 1993-06-14 15:00:00 NR 4.34249 157.743 main 1061 1061 P_____________ WP061993 4.34249 157.743 15 -1 3 289
1993164N04160 1993 33 WP MM KORYN 1993-06-14 18:00:00 NR 4.40000 157.600 main 1064 1057 O_____________ jtwc_wp WP061993 4.40000 157.600 15 -1 3 290
1993164N04160 1993 33 WP MM KORYN 1993-06-14 21:00:00 NR 4.45000 157.450 main 1066 1054 P_____________ WP061993 4.45000 157.450 17 -1 3 289
1993164N04160 1993 33 WP MM KORYN 1993-06-15 00:00:00 NR 4.50000 157.300 main 1054 1048 O_____________ jtwc_wp WP061993 4.50000 157.300 20 -1 3 288
1993164N04160 1993 33 WP MM KORYN 1993-06-15 03:00:00 NR 4.55000 157.143 main 1051 1045 P_____________ WP061993 4.55000 157.143 20 -1 3 289
1993164N04160 1993 33 WP MM KORYN 1993-06-15 06:00:00 NR 4.60000 157.000 main 1045 1039 O_____________ jtwc_wp WP061993 4.60000 157.000 20 -1 3 290
1993164N04160 1993 33 WP MM KORYN 1993-06-15 09:00:00 NR 4.64250 156.885 main 1039 1039 P_____________ WP061993 4.64250 156.885 20 -1 2 297
1993164N04160 1993 33 WP MM KORYN 1993-06-15 12:00:00 NR 4.70000 156.800 main 1043 1043 O_____________ jtwc_wp WP061993 4.70000 156.800 20 -1 2 317
1993164N04160 1993 33 WP MM KORYN 1993-06-15 15:00:00 NR 4.79250 156.743 main 1047 1032 P_____________ WP061993 4.79250 156.743 22 -1 2 259
1993164N04160 1993 33 WP MM KORYN 1993-06-15 18:00:00 TS 4.66667 156.633 1008 tokyo main 1032 1032 OOO___________ jtwc_wp WP061993 4.90000 156.700 25 -1 4.20000 156.500 2 1008 0 0 0 4.20000 156.500 0 19 1008 1 228
1993164N04160 1993 33 WP MM KORYN 1993-06-15 21:00:00 TS 4.70500 156.647 main 1032 1032 PPP___________ WP061993 5.00000 156.650 25 -1 4.41000 156.645 2 1008 0 0 4.41000 156.645 0 19 1008 2 33
1993164N04160 1993 33 WP MM KORYN 1993-06-16 00:00:00 TS 4.80000 156.720 1008 tokyo main 1047 1047 OOO___________ jtwc_wp WP061993 5.10000 156.600 25 -1 4.60000 156.800 2 1008 0 0 0 4.60000 156.800 0 19 1008 3 41
1993164N04160 1993 33 WP MM KORYN 1993-06-16 03:00:00 TS 4.91084 156.827 main 1062 1062 PPP___________ WP061993 5.19250 156.550 25 -1 4.77001 156.965 2 1008 0 0 4.77001 156.965 0 21 1008 4 31
1993164N04160 1993 33 WP MM KORYN 1993-06-16 06:00:00 TS 5.10000 156.900 1008 tokyo main 1087 1087 OOO___________ jtwc_wp WP061993 5.30000 156.500 25 -1 5.00000 157.100 2 1008 0 0 0 5.00000 157.100 1 23 1008 5 13
1993164N04160 1993 33 WP MM KORYN 1993-06-16 09:00:00 TS 5.40166 156.939 main 1116 1116 PPP___________ WP061993 5.43500 156.443 27 -1 5.38499 157.187 2 1008 0 0 5.38499 157.187 1 23 1008 6 3
1993164N04160 1993 33 WP MM KORYN 1993-06-16 12:00:00 TS 5.73333 156.933 1008 tokyo main 1144 1144 OOO___________ jtwc_wp WP061993 5.60000 156.400 30 -1 5.80000 157.200 2 1008 0 0 0 5.80000 157.200 1 23 1008 6 357
1993164N04160 1993 33 WP MM KORYN 1993-06-16 15:00:00 TS 6.01999 156.892 main 1173 1173 PPP___________ WP061993 5.78500 156.400 30 -1 6.13749 157.138 2 1008 0 0 6.13749 157.138 1 23 1008 6 346
1993164N04160 1993 33 WP MM KORYN 1993-06-16 18:00:00 TS 6.26667 156.800 1008 tokyo main 1197 1197 OOO___________ jtwc_wp WP061993 6.00000 156.400 30 -1 6.40000 157.000 2 1008 0 0 0 6.40000 157.000 1 23 1008 5 335
1993164N04160 1993 33 WP MM KORYN 1993-06-16 21:00:00 TS 6.47248 156.680 main 1211 1206 PPP___________ WP061993 6.24250 156.365 32 -1 6.58747 156.837 2 1008 0 0 6.58747 156.837 1 26 1007 5 321
1993164N04160 1993 33 WP MM KORYN 1993-06-17 00:00:00 TS 6.63333 156.500 1008 tokyo main 1210 1210 OOO___________ jtwc_wp WP061993 6.50000 156.300 35 0 6.70000 156.600 2 1008 0 0 0 6.70000 156.600 1 29 1006 5 305
1993164N04160 1993 33 WP MM KORYN 1993-06-17 03:00:00 TS 6.76501 156.253 main 1220 1206 PPP___________ WP061993 6.75750 156.215 35 0 6.76502 156.272 2 1007 0 0 6.77252 156.272 1 29 1006 6 294
1993164N04160 1993 33 WP MM KORYN 1993-06-17 06:00:00 TS 6.86667 155.967 1006 tokyo main 1215 1200 OOO___________ jtwc_wp WP061993 7.00000 156.100 35 0 6.80000 155.900 2 1006 0 0 0 6.80000 155.900 1 29 1006 6 288
1993164N04160 1993 33 WP MM KORYN 1993-06-17 09:00:00 TS 6.94750 155.681 main 1200 1196 PPP___________ WP061993 7.22998 155.973 35 0 6.83499 155.542 2 1007 0 0 6.77752 155.527 1 29 1006 6 286
1993164N04160 1993 33 WP MM KORYN 1993-06-17 12:00:00 TS 7.03333 155.400 1008 tokyo main 1196 1196 OOO___________ jtwc_wp WP061993 7.40000 155.800 35 0 6.90000 155.200 2 1008 0 0 0 6.80000 155.200 1 29 1006 6 293
1993164N04160 1993 33 WP MM KORYN 1993-06-17 15:00:00 TS 7.16914 155.145 main 1203 1199 PPP___________ WP061993 7.47248 155.580 35 0 7.04250 154.870 2 1007 0 0 6.99245 154.985 1 29 1006 6 298
1993164N04160 1993 33 WP MM KORYN 1993-06-17 18:00:00 TS 7.30000 154.900 1006 tokyo main 1205 1201 OOO___________ jtwc_wp WP061993 7.50000 155.300 35 0 7.20000 154.600 2 1006 0 0 0 7.20000 154.800 1 29 1006 5 293
1993164N04160 1993 33 WP MM KORYN 1993-06-17 21:00:00 TS 7.37915 154.652 main 1207 1196 PPP___________ WP061993 7.55749 154.973 35 0 7.31496 154.435 2 1006 0 0 7.26501 154.550 1 29 1005 5 285
1993164N04160 1993 33 WP MM KORYN 1993-06-18 00:00:00 TS 7.43333 154.400 1006 tokyo main 1196 1193 OOO___________ jtwc_wp WP061993 7.60000 154.600 35 0 7.40000 154.300 2 1006 0 0 0 7.30000 154.300 1 29 1005 5 282
1993164N04160 1993 33 WP MM KORYN 1993-06-18 03:00:00 TS 7.48830 154.148 main 1196 1190 PPP___________ WP061993 7.60746 154.215 35 0 7.46498 154.122 2 1006 0 0 7.39246 154.107 1 29 1005 5 281
1993164N04160 1993 33 WP MM KORYN 1993-06-18 06:00:00 TS 7.53333 153.867 1006 tokyo main 1190 1187 OOO___________ jtwc_wp WP061993 7.60000 153.800 35 0 7.50000 153.900 2 1006 0 0 0 7.50000 153.900 1 29 1005 6 278
1993164N04160 1993 33 WP MM KORYN 1993-06-18 09:00:00 TS 7.56909 153.554 main 1192 1182 PPP___________ WP061993 7.59993 153.372 35 0 7.50745 153.637 2 1007 0 0 7.59991 153.652 1 29 1005 7 275
1993164N04160 1993 33 WP MM KORYN 1993-06-18 12:00:00 TS 7.60000 153.167 1008 tokyo main 1182 1171 OOO___________ jtwc_wp WP061993 7.60000 152.900 35 0 7.50000 153.300 2 1008 0 0 0 7.70000 153.300 1 29 1005 9 275
1993164N04160 1993 33 WP MM KORYN 1993-06-18 15:00:00 TS 7.64081 152.685 main 1171 1169 PPP___________ WP061993 7.60751 152.358 35 0 7.50741 152.903 2 1008 0 0 7.80752 152.795 1 29 1005 10 274
1993164N04160 1993 33 WP MM KORYN 1993-06-18 18:00:00 TS 7.66667 152.133 1008 tokyo main 1173 1168 OOO___________ jtwc_wp WP061993 7.60000 151.800 35 0 7.50000 152.400 2 1008 0 0 0 7.90000 152.200 1 29 1005 11 271
1993164N04160 1993 33 WP MM KORYN 1993-06-18 21:00:00 TS 7.66254 151.540 main 1167 1154 PPP___________ WP061993 7.55742 151.292 35 0 7.45014 151.750 2 1008 0 0 7.98006 151.578 1 29 1005 12 268
1993164N04160 1993 33 WP MM KORYN 1993-06-19 00:00:00 TS 7.63333 150.967 1008 tokyo main 1154 1140 OOO___________ jtwc_wp WP061993 7.50000 150.800 35 0 7.40000 151.100 2 1008 0 0 0 8.00000 151.000 1 29 1005 10 266
1993164N04160 1993 33 WP MM KORYN 1993-06-19 03:00:00 TS 7.59570 150.502 main 1140 1116 PPP___________ WP061993 7.45747 150.293 35 0 7.39233 150.628 2 1007 0 0 7.93731 150.585 1 29 1005 9 264
1993164N04160 1993 33 WP MM KORYN 1993-06-19 06:00:00 TS 7.53333 150.067 1006 tokyo main 1116 1092 OOO___________ jtwc_wp WP061993 7.40000 149.800 35 0 7.40000 150.200 2 1006 0 0 0 7.80000 150.200 1 29 1005 9 260
1993164N04160 1993 33 WP MM KORYN 1993-06-19 09:00:00 TS 7.43575 149.601 main 1092 1070 PPP___________ WP061993 7.30745 149.335 35 0 7.40738 149.730 2 1008 0 0 7.59241 149.737 1 29 1005 10 258
1993164N04160 1993 33 WP MM KORYN 1993-06-19 12:00:00 TS 7.33333 149.100 1010 tokyo main 1070 1060 OOO___________ jtwc_wp WP061993 7.20000 148.900 35 0 7.40000 149.200 2 1010 0 0 0 7.40000 149.200 1 29 1005 11 261
1993164N04160 1993 33 WP MM KORYN 1993-06-19 15:00:00 TS 7.25429 148.503 main 1060 1044 PPP___________ WP061993 7.09250 148.470 35 0 7.35018 148.520 2 1009 0 0 7.32018 148.520 1 29 1005 11 263
1993164N04160 1993 33 WP MM KORYN 1993-06-19 18:00:00 TS 7.20000 147.967 1008 tokyo main 1044 1042 OOO___________ jtwc_wp WP061993 7.00000 148.100 35 0 7.30000 147.900 2 1008 0 0 0 7.30000 147.900 1 29 1005 9 264
1993164N04160 1993 33 WP MM KORYN 1993-06-19 21:00:00 TS 7.17070 147.641 main 1042 1042 PPP___________ WP061993 6.92744 147.828 35 0 7.29233 147.548 2 1008 0 0 7.29233 147.548 1 29 1005 6 267
1993164N04160 1993 33 WP MM KORYN 1993-06-20 00:00:00 TS 7.16667 147.400 1008 tokyo main 1042 1042 OOO___________ jtwc_wp WP061993 6.90000 147.600 35 0 7.30000 147.300 2 1008 0 0 0 7.30000 147.300 1 29 1005 5 271
1993164N04160 1993 33 WP MM KORYN 1993-06-20 03:00:00 TS 7.18083 147.112 main 1042 1042 PPP___________ WP061993 6.94249 147.350 35 0 7.29999 146.993 2 1008 0 0 7.29999 146.993 1 29 1005 6 273
1993164N04160 1993 33 WP MM KORYN 1993-06-20 06:00:00 TS 7.20000 146.833 1008 tokyo main 1042 1042 OOO___________ jtwc_wp WP061993 7.00000 147.100 35 0 7.30000 146.700 2 1008 0 0 0 7.30000 146.700 1 29 1005 5 272
1993164N04160 1993 33 WP MM KORYN 1993-06-20 09:00:00 TS 7.19747 146.581 main 1042 1042 PPP___________ WP061993 6.99244 146.872 35 0 7.29998 146.435 2 1008 0 0 7.29998 146.435 1 29 1005 5 270
1993164N04160 1993 33 WP MM KORYN 1993-06-20 12:00:00 TS 7.20000 146.333 1008 tokyo main 1042 1042 OOO___________ jtwc_wp WP061993 7.00000 146.600 35 0 7.30000 146.200 2 1008 0 0 0 7.30000 146.200 1 29 1005 5 273
1993164N04160 1993 33 WP MM KORYN 1993-06-20 15:00:00 TS 7.22082 146.077 main 1043 1043 PPP___________ WP061993 7.07754 146.215 35 0 7.29246 146.007 2 1008 0 0 7.29246 146.007 1 29 1005 5 277
1993164N04160 1993 33 WP MM KORYN 1993-06-20 18:00:00 TS 7.26667 145.800 1008 tokyo main 1057 1057 OOO___________ jtwc_wp WP061993 7.20000 145.800 35 0 7.30000 145.800 2 1008 0 0 0 7.30000 145.800 1 29 1005 5 281
1993164N04160 1993 33 WP MM KORYN 1993-06-20 21:00:00 TS 7.32237 145.533 main 1060 1060 PPP___________ WP061993 7.32740 145.465 35 0 7.31986 145.567 2 1008 0 0 7.31986 145.567 1 29 1005 7 281
1993164N04160 1993 33 WP MM KORYN 1993-06-21 00:00:00 TS 7.40769 145.085 1008 tokyo main 1077 1077 OOOO__________ jtwc_wp WP061993 7.50000 145.100 35 0 7.40000 145.200 2 1008 0 0 0 7.40000 145.200 1 29 1005 7.10000 144.100 TD 25 1000 11 284
1993164N04160 1993 33 WP MM KORYN 1993-06-21 03:00:00 TS 7.58402 144.468 main 1111 1111 PPPP__________ WP061993 7.73496 144.637 35 0 7.57766 144.588 2 1007 0 0 7.57766 144.588 1 29 1005 7.30760 143.648 TD 25 1000 13 288
1993164N04160 1993 33 WP MM KORYN 1993-06-21 06:00:00 TS 7.81333 143.813 1006 tokyo main 1152 1152 OOOO__________ jtwc_wp WP061993 8.00000 144.100 35 0 7.80000 143.900 2 1006 0 0 0 7.80000 143.900 1 29 1005 7.60000 143.200 TD 25 1000 13 291
1993164N04160 1993 33 WP MM KORYN 1993-06-21 09:00:00 TS 8.05612 143.245 main 1203 1203 PPPP__________ WP061993 8.22737 143.537 37 0 7.98483 143.342 2 1004 0 0 7.98483 143.342 1 29 1003 8.02743 142.757 TD 27 997 12 296
1993164N04160 1993 33 WP MM KORYN 1993-06-21 12:00:00 TS 8.35000 142.700 35 1002 tokyo main 1226 1217 OOOO__________ jtwc_wp WP061993 8.50000 142.900 40 0 8.20000 142.800 3 35 1002 0 9 70 70 0 8.20000 142.800 1 29 1002 8.50000 142.300 TD 30 995 13 299
1993164N04160 1993 33 WP MM KORYN 1993-06-21 15:00:00 TS 8.68678 142.110 main 1232 1228 PPPP__________ WP061993 8.90006 142.158 42 0 8.46234 142.230 3 35 999 0 9 75 75 8.46234 142.230 1 33 998 8.92239 141.822 TD 32 992 14 300
1993164N04160 1993 33 WP MM KORYN 1993-06-21 18:00:00 TS 9.05000 141.475 35 996 tokyo main 1253 1242 OOOO__________ jtwc_wp WP061993 9.30000 141.400 45 0 8.80000 141.600 3 35 996 0 9 80 80 0 8.80000 141.600 2 38 995 9.30000 141.300 TS 35 990 15 300
1993164N04160 1993 33 WP MM KORYN 1993-06-21 21:00:00 TS 9.42940 140.782 main 1265 1265 PPPP__________ WP061993 9.57236 140.720 47 0 9.25765 140.843 3 37 995 0 9 90 90 9.25765 140.843 2 38 995 9.62992 140.722 TS 35 990 15 298
1993164N04160 1993 33 WP MM KORYN 1993-06-22 00:00:00 TS 9.77500 140.100 40 994 tokyo main 1275 1270 OOOO__________ jtwc_wp WP061993 9.80000 140.100 50 0 9.70000 140.100 3 40 994 0 9 100 100 0 9.70000 140.100 2 38 995 9.90000 140.100 TS 35 990 14 296
1993164N04160 1993 33 WP MM KORYN 1993-06-22 03:00:00 TS 10.0348 139.502 main 1274 1274 PPPP__________ WP061993 10.0573 139.535 52 0 9.98727 139.512 3 42 992 0 9 100 100 9.98727 139.512 2 43 992 10.1075 139.450 TS 40 987 12 293
1993164N04160 1993 33 WP MM KORYN 1993-06-22 06:00:00 TS 10.2500 138.950 45 990 tokyo main 1288 1274 OOOO__________ jtwc_wp WP061993 10.3000 139.000 55 0 10.2000 139.000 3 45 990 0 9 100 100 0 10.2000 139.000 3 48 990 10.3000 138.800 TS 45 985 11 292
1993164N04160 1993 33 WP MM KORYN 1993-06-22 09:00:00 TS 10.4604 138.420 main 1292 1283 PPPP__________ WP061993 10.4999 138.450 57 0 10.3998 138.515 3 47 987 0 9 110 110 10.3998 138.515 3 48 987 10.5423 138.200 TS 42 985 11 292
1993164N04160 1993 33 WP MM KORYN 1993-06-22 12:00:00 TS 10.6750 137.875 50 985 tokyo main 1285 1228 OOOO__________ jtwc_wp WP061993 10.7000 137.900 60 0 10.6000 138.000 4 50 985 0 9 120 120 0 10.6000 138.000 3 48 985 10.8000 137.600 TS 40 985 12 292
1993164N04160 1993 33 WP MM KORYN 1993-06-22 15:00:00 TS 10.9155 137.274 main 1228 1168 PPPP__________ WP061993 10.9347 137.380 62 0 10.8349 137.387 4 55 980 0 9 130 130 10.8349 137.387 3 53 980 11.0575 136.943 TS 42 985 13 292
1993164N04160 1993 33 WP MM KORYN 1993-06-22 18:00:00 TS 11.1750 136.625 60 975 tokyo main 1160 1090 OOOO__________ jtwc_wp WP061993 11.2000 136.800 65 1 11.1000 136.700 4 60 975 9 40 40 9 140 140 0 11.1000 136.700 3 58 975 11.3000 136.300 TS 45 985 15 292
1993164N04160 1993 33 WP MM KORYN 1993-06-22 21:00:00 TS 11.4520 135.903 main 1092 1034 PPPP__________ WP061993 11.5078 136.043 70 1 11.4002 135.920 4 65 970 9 50 50 9 150 150 11.4002 135.920 3 63 972 11.4998 135.727 TS 50 980 15 292
1993164N04160 1993 33 WP MM KORYN 1993-06-23 00:00:00 TS 11.7250 135.225 70 965 tokyo main 1023 976 OOOO__________ jtwc_wp WP061993 11.8000 135.300 75 1 11.7000 135.200 5 70 965 9 60 60 9 160 160 0 11.7000 135.200 4 68 970 11.7000 135.200 STS 55 975 13 294
1993164N04160 1993 33 WP MM KORYN 1993-06-23 03:00:00 TS 11.9697 134.724 main 976 936 PPPP__________ WP061993 12.0071 134.770 82 1 11.9571 134.712 5 72 960 9 65 65 9 165 165 11.9571 134.712 4 72 965 11.9573 134.700 STS 60 970 10 297
1993164N04160 1993 33 WP MM KORYN 1993-06-23 06:00:00 TS 12.2000 134.275 75 955 tokyo main 936 885 OOOO__________ jtwc_wp WP061993 12.2000 134.300 90 2 12.2000 134.300 5 75 955 9 70 70 9 170 170 0 12.2000 134.300 4 77 960 12.2000 134.200 T 65 965 10 296
1993164N04160 1993 33 WP MM KORYN 1993-06-23 09:00:00 TS 12.4305 133.767 main 885 836 PPPP__________ WP061993 12.4499 133.765 97 3 12.4574 133.822 5 80 950 9 75 75 9 175 175 12.4574 133.822 4 77 960 12.3574 133.657 T 67 962 11 294
1993164N04160 1993 33 WP MM KORYN 1993-06-23 12:00:00 TS 12.6500 133.225 85 945 tokyo main 827 777 OOOO__________ jtwc_wp WP061993 12.7000 133.200 105 3 12.7000 133.300 5 85 945 9 80 80 9 180 180 0 12.7000 133.300 4 77 960 12.5000 133.100 T 70 960 12 292
1993164N04160 1993 33 WP MM KORYN 1993-06-23 15:00:00 TS 12.8612 132.647 main 770 721 PPPP__________ WP061993 12.9149 132.607 110 3 12.9150 132.715 5 87 940 9 85 85 9 190 190 12.9150 132.715 4 82 955 12.6999 132.550 T 72 957 12 289
1993164N04160 1993 33 WP MM KORYN 1993-06-23 18:00:00 TS 13.0500 132.050 90 935 tokyo main 723 660 OOOO__________ jtwc_wp WP061993 13.1000 132.000 115 4 13.1000 132.100 5 90 935 9 90 90 9 200 200 0 13.1000 132.100 5 87 950 12.9000 132.000 T 75 955 12 287
1993164N04160 1993 33 WP MM KORYN 1993-06-23 21:00:00 TS 13.2111 131.459 main 660 598 PPPP__________ WP061993 13.2649 131.400 120 4 13.2649 131.492 5 95 927 9 100 100 9 220 220 13.2649 131.492 5 92 947 13.0499 131.450 T 80 950 12 285
1993164N04160 1993 33 WP MM KORYN 1993-06-24 00:00:00 TS 13.3500 130.875 100 920 tokyo main 601 540 OOOO__________ jtwc_wp WP061993 13.4000 130.800 125 4 13.4000 130.900 5 100 920 9 110 110 9 240 240 0 13.4000 130.900 5 97 945 13.2000 130.900 ST 85 945 12 283
1993164N04160 1993 33 WP MM KORYN 1993-06-24 03:00:00 TS 13.4693 130.303 main 540 491 PPPP__________ WP061993 13.4924 130.192 127 4 13.4924 130.335 5 102 915 9 115 115 9 240 240 13.4924 130.335 5 101 940 13.3999 130.350 ST 87 942 11 283
1993164N04160 1993 33 WP MM KORYN 1993-06-24 06:00:00 TS 13.6000 129.750 105 910 tokyo main 491 444 OOOO__________ jtwc_wp WP061993 13.6000 129.600 130 4 13.6000 129.800 5 105 910 9 120 120 9 240 240 0 13.6000 129.800 6 106 935 13.6000 129.800 ST 90 940 11 286
1993164N04160 1993 33 WP MM KORYN 1993-06-24 09:00:00 TS 13.7741 129.236 main 439 401 PPPP__________ WP061993 13.7848 129.043 130 4 13.7846 129.322 5 105 907 9 120 120 9 270 240 13.7846 129.322 6 111 927 13.7423 129.257 ST 92 937 11 290
1993164N04160 1993 33 WP MM KORYN 1993-06-24 12:00:00 TS 13.9750 128.700 105 905 tokyo main 401 359 OOOO__________ jtwc_wp WP061993 14.0000 128.500 130 4 14.0000 128.800 5 105 905 9 120 120 2 300 240 0 14.0000 128.800 6 116 920 13.9000 128.700 ST 95 935 12 290
1993164N04160 1993 33 WP MM KORYN 1993-06-24 15:00:00 TS 14.1744 128.072 main 359 326 PPPP__________ WP061993 14.1924 127.950 130 4 14.1852 128.115 5 105 905 9 120 120 2 300 240 14.1852 128.115 6 116 920 14.1349 128.107 ST 87 942 13 289
1993164N04160 1993 33 WP MM KORYN 1993-06-24 18:00:00 TS 14.4000 127.425 105 905 tokyo main 319 280 OOOO__________ jtwc_wp WP061993 14.4000 127.400 130 4 14.4000 127.400 5 105 905 9 120 120 2 300 240 0 14.4000 127.400 6 116 920 14.4000 127.500 T 80 950 13 292
1993164N04160 1993 33 WP MM KORYN 1993-06-24 21:00:00 TS 14.6654 126.830 main 273 233 PPPP__________ WP061993 14.6348 126.865 127 4 14.6923 126.778 5 105 907 9 120 120 2 350 260 14.6923 126.778 6 111 927 14.6423 126.900 T 72 957 13 296
1993164N04160 1993 33 WP MM KORYN 1993-06-25 00:00:00 TS 14.9500 126.250 105 910 tokyo main 238 201 OOOO__________ jtwc_wp WP061993 14.9000 126.300 125 4 15.0000 126.200 5 105 910 9 120 120 2 400 280 0 15.0000 126.200 6 106 935 14.9000 126.300 T 65 965 13 296
1993164N04160 1993 33 WP MM KORYN 1993-06-25 03:00:00 TS 15.2080 125.657 main 201 184 PPPP__________ WP061993 15.1851 125.650 122 4 15.2348 125.642 5 102 912 9 120 120 2 400 280 15.2348 125.642 6 106 935 15.1774 125.692 T 65 965 13 296
1993164N04160 1993 33 WP MM KORYN 1993-06-25 06:00:00 TS 15.5000 125.075 100 915 tokyo main 188 184 OOOO__________ jtwc_wp WP061993 15.5000 125.000 120 4 15.5000 125.100 5 100 915 9 120 120 2 400 280 0 15.5000 125.100 6 106 935 15.5000 125.100 T 65 965 13 302
1993164N04160 1993 33 WP MM KORYN 1993-06-25 09:00:00 TS 15.8815 124.542 main 213 173 PPPP__________ WP061993 15.8496 124.450 117 4 15.8847 124.572 5 97 917 9 115 115 2 400 280 15.8847 124.572 6 101 940 15.9070 124.572 T 67 962 13 306
1993164N04160 1993 33 WP MM KORYN 1993-06-25 12:00:00 TS 16.2750 123.975 95 920 tokyo main 173 91 OOOO__________ jtwc_wp WP061993 16.2000 123.900 115 4 16.3000 124.000 5 95 920 9 110 110 2 400 280 0 16.3000 124.000 5 97 945 16.3000 124.000 T 70 960 14 302
1993164N04160 1993 33 WP MM KORYN 1993-06-25 15:00:00 TS 16.6175 123.299 main 91 10 PPPP__________ WP061993 16.4999 123.272 112 3 16.6949 123.330 5 92 925 9 105 105 2 400 265 16.6949 123.330 5 97 945 16.5802 123.265 T 70 960 15 295
1993164N04160 1993 33 WP MM KORYN 1993-06-25 18:00:00 TS 16.9000 122.575 90 930 tokyo main 10 0 OOOO__________ jtwc_wp WP061993 16.8000 122.600 110 3 17.0000 122.600 5 90 930 9 100 100 2 400 250 0 17.0000 122.600 5 97 945 16.8000 122.500 T 70 960 15 288
1993164N04160 1993 33 WP MM KORYN 1993-06-25 21:00:00 TS 17.0781 121.845 main 0 0 PPPP__________ WP061993 17.1423 121.907 107 3 17.1076 121.827 5 87 935 9 95 95 2 362 287 17.0926 121.827 5 92 947 16.9698 121.819 T 67 962 14 285
1993164N04160 1993 33 WP MM KORYN 1993-06-26 00:00:00 TS 17.2750 121.150 85 940 tokyo main 0 0 OOOO__________ jtwc_wp WP061993 17.5000 121.200 105 3 17.2000 121.100 5 85 940 9 90 90 9 325 325 0 17.2000 121.100 5 87 950 17.2000 121.200 T 65 965 13 293
1993164N04160 1993 33 WP MM KORYN 1993-06-26 03:00:00 TS 17.6082 120.562 main 0 0 PPPP__________ WP061993 17.8498 120.500 97 3 17.4319 120.542 5 82 942 9 90 90 9 325 325 17.5394 120.542 5 82 955 17.6119 120.665 T 65 965 14 304
1993164N04160 1993 33 WP MM KORYN 1993-06-26 06:00:00 TS 18.0250 119.975 80 945 tokyo main 52 52 OOOO__________ jtwc_wp WP061993 18.2000 119.800 90 2 17.8000 120.000 5 80 945 9 90 90 9 325 325 0 18.0000 120.000 4 77 960 18.1000 120.100 T 65 965 15 306
1993164N04160 1993 33 WP MM KORYN 1993-06-26 09:00:00 TS 18.4947 119.300 main 134 134 PPPP__________ WP061993 18.5571 119.115 90 2 18.3346 119.353 5 80 947 9 90 90 9 325 325 18.5073 119.338 4 77 960 18.5798 119.395 T 65 965 16 304
1993164N04160 1993 33 WP MM KORYN 1993-06-26 12:00:00 TS 18.9500 118.550 80 950 tokyo main 221 221 OOOO__________ jtwc_wp WP061993 18.9000 118.400 90 2 18.9000 118.600 5 80 950 9 90 90 9 325 325 0 19.0000 118.600 4 77 960 19.0000 118.600 T 65 965 17 299
1993164N04160 1993 33 WP MM KORYN 1993-06-26 15:00:00 TS 19.3125 117.724 main 321 321 PPPP__________ WP061993 19.2149 117.607 90 2 19.3603 117.708 5 77 952 9 85 85 9 312 312 19.4022 117.822 4 77 960 19.2724 117.757 T 65 965 17 292
1993164N04160 1993 33 WP MM KORYN 1993-06-26 18:00:00 TS 19.6000 116.875 75 955 tokyo main 364 325 OOOO__________ jtwc_wp WP061993 19.5000 116.800 90 2 19.7000 116.800 5 75 955 9 80 80 9 300 300 0 19.7000 117.000 4 77 960 19.5000 116.900 T 65 965 17 288
1993164N04160 1993 33 WP MM KORYN 1993-06-26 21:00:00 TS 19.8236 116.059 main 325 277 PPPP__________ WP061993 19.7422 116.034 90 2 19.8796 116.004 5 72 957 9 80 80 9 300 300 19.8726 116.127 4 77 960 19.7998 116.070 T 65 965 15 286
1993164N04160 1993 33 WP MM KORYN 1993-06-27 00:00:00 TS 20.0250 115.300 70 960 tokyo main 277 238 OOOO__________ jtwc_wp WP061993 20.0000 115.300 90 2 20.0000 115.300 5 70 960 9 80 80 9 300 300 0 20.0000 115.300 4 77 960 20.1000 115.300 T 65 965 14 287
1993164N04160 1993 33 WP MM KORYN 1993-06-27 03:00:00 TS 20.2445 114.631 main 236 187 PPPP__________ WP061993 20.3345 114.600 87 2 20.1544 114.692 5 70 962 9 75 75 9 300 300 20.1545 114.612 4 77 960 20.3346 114.619 T 65 965 13 292
1993164N04160 1993 33 WP MM KORYN 1993-06-27 06:00:00 TS 20.5250 114.000 70 965 tokyo main 187 119 OOOO__________ jtwc_wp WP061993 20.7000 113.900 85 2 20.4000 114.100 5 70 965 9 70 70 9 300 300 0 20.4000 114.000 4 77 960 20.6000 114.000 T 65 965 14 300
1993164N04160 1993 33 WP MM KORYN 1993-06-27 09:00:00 TS 20.9427 113.355 main 119 56 PPPP__________ WP061993 21.0946 113.173 85 2 20.8424 113.416 5 67 967 9 70 70 9 270 240 20.8420 113.415 4 72 965 20.9920 113.415 T 62 967 15 304
1993164N04160 1993 33 WP MM KORYN 1993-06-27 12:00:00 TS 21.3500 112.675 65 970 tokyo main 45 15 OOOO__________ jtwc_wp WP061993 21.4000 112.400 85 2 21.3000 112.700 5 65 970 9 70 70 4 240 180 0 21.3000 112.800 4 68 970 21.4000 112.800 STS 60 970 15 296
1993164N04160 1993 33 WP MM KORYN 1993-06-27 15:00:00 TS 21.5811 111.923 main 10 0 PPPP__________ WP061993 21.5022 111.572 82 1 21.5944 112.022 5 62 972 9 65 55 4 240 165 21.5501 112.057 4 63 972 21.6778 112.042 STS 52 975 15 286
1993164N04160 1993 33 WP MM KORYN 1993-06-27 18:00:00 TS 21.7600 111.140 60 975 tokyo main 0 0 OOOO__________ jtwc_wp WP061993 21.5000 110.700 80 1 21.8000 111.300 4 60 975 4 60 40 4 240 150 0 21.8000 111.300 3 58 975 22.0000 111.300 TS 45 980 15 286
1993164N04160 1993 33 WP MM KORYN 1993-06-27 21:00:00 TS 21.9846 110.358 main 0 0 PPPP__________ WP061993 21.5141 109.837 72 1 21.9795 110.495 4 52 982 4 4 220 135 22.2052 110.568 3 48 985 22.4949 110.704 TS 37 985 15 286
1993164N04160 1993 33 WP MM KORYN 1993-06-28 00:00:00 TS 22.1769 109.554 45 990 tokyo main 0 0 OOOO__________ jtwc_wp WP061993 21.5000 108.900 65 1 22.1000 109.600 3 45 990 0 4 200 120 0 22.7000 110.000 2 38 995 23.1000 110.200 TD 30 990 16 282
1993164N04160 1993 33 WP MM KORYN 1993-06-28 03:00:00 TS 22.3010 108.713 main 0 0 PPP___________ WP061993 21.4283 107.777 57 0 22.1581 108.570 3 40 993 0 4 175 105 23.3166 109.792 2 38 995 TD 16 276
1993164N04160 1993 33 WP MM KORYN 1993-06-28 06:00:00 TS 22.3455 107.818 35 996 tokyo main 0 0 OOO___________ jtwc_wp WP061993 21.4000 106.700 50 0 22.2000 107.600 3 35 996 0 4 150 90 0 23.8000 109.600 2 38 995 17 270
1993164N04160 1993 33 WP MM KORYN 1993-06-28 09:00:00 TS 22.2927 106.902 main 0 0 PPP___________ WP061993 21.4889 105.890 40 0 22.2847 106.815 3 997 0 4 23.9162 109.102 2 33 997 15 269
1993164N04160 1993 33 WP MM KORYN 1993-06-28 12:00:00 TS 22.3125 106.150 998 tokyo main 0 0 OOO___________ jtwc_wp WP061993 21.7000 105.200 30 -1 22.4000 106.300 2 998 0 0 0 23.8000 108.400 1 29 1000 12 274
1993164N04160 1993 33 WP MM KORYN 1993-06-28 15:00:00 TS 22.3683 105.576 main 0 0 PP____________ WP061993 22.0209 104.508 27 -1 22.5420 106.110 2 999 0 0 1 6 305
1993164N04160 1993 33 WP MM KORYN 1993-06-28 18:00:00 TS 22.6400 105.640 1000 tokyo main 0 0 OO____________ jtwc_wp WP061993 22.4000 103.800 25 -1 22.7000 106.100 2 1000 0 0 0 6 40
1993164N04160 1993 33 WP MM KORYN 1993-06-28 21:00:00 TS 22.8500 106.020 main 0 0 _P____________ WP061993 -1 22.8500 106.020 2 1001 0 0 5 43
1993164N04160 1993 33 WP MM KORYN 1993-06-29 00:00:00 TS 23.0000 106.000 1002 tokyo main 0 0 _O____________ -1 23.0000 106.000 2 1002 0 0 0 3 9
1993164N04160 1993 33 WP MM KORYN 1993-06-29 03:00:00 TS 23.1500 106.072 main 0 0 _P____________ -1 23.1500 106.072 2 1002 0 0 4 31
1993164N04160 1993 33 WP MM KORYN 1993-06-29 06:00:00 TS 23.3000 106.200 1002 tokyo main 0 _O____________ -1 23.3000 106.200 2 1002 0 0 0 4 38

Digital Typhoon Data and Search

About IBTrACS Database

This database is a web-friendly format of International Best Track Archive for Climate Stewardship (IBTrACS), a global best track data archive curated by NOAA dating back to 1842.

Updated: 2021-10-08